createdAt,value
2023-03-17T06:22:03.722Z,84.00
2023-03-17T06:25:05.948Z,84.20
2023-03-17T06:28:07.649Z,84.30
2023-03-17T06:31:09.493Z,84.20
2023-03-17T06:34:11.987Z,84.20
2023-03-17T06:37:13.741Z,84.30
2023-03-17T06:40:16.205Z,84.40
2023-03-17T06:43:19.534Z,84.40
2023-03-17T06:46:21.580Z,84.40
2023-03-17T06:49:23.270Z,84.50
2023-03-17T06:52:25.501Z,84.50
2023-03-17T06:55:27.398Z,84.40
2023-03-17T06:58:29.348Z,84.40
2023-03-17T07:01:31.535Z,84.50
2023-03-17T07:04:33.310Z,84.60
2023-03-17T07:07:35.614Z,84.70
2023-03-17T07:10:37.381Z,84.70
2023-03-17T07:13:39.846Z,84.60
2023-03-17T07:16:41.544Z,84.60
2023-03-17T07:19:43.684Z,84.70
2023-03-17T07:22:45.452Z,84.70
2023-03-17T07:25:47.473Z,84.70
2023-03-17T07:28:49.170Z,84.60
2023-03-17T07:31:51.209Z,84.60
2023-03-17T07:34:53.030Z,84.60
2023-03-17T07:37:55.301Z,84.70
2023-03-17T07:40:57.019Z,84.70
2023-03-17T07:43:58.874Z,84.60
2023-03-17T07:47:00.526Z,84.60
2023-03-17T07:50:02.277Z,84.50
2023-03-17T07:53:04.618Z,84.40
2023-03-17T07:56:06.893Z,84.40
2023-03-17T07:59:10.927Z,84.40
2023-03-17T08:02:16.403Z,84.50
2023-03-17T08:05:18.298Z,84.60
2023-03-17T08:08:22.124Z,84.60
2023-03-17T08:11:24.168Z,84.70
2023-03-17T08:14:25.962Z,84.70
2023-03-17T08:17:27.593Z,84.60
2023-03-17T08:20:29.962Z,84.60
2023-03-17T08:23:32.372Z,84.60
2023-03-17T08:26:34.410Z,84.60
2023-03-17T08:29:36.101Z,84.60
2023-03-17T08:32:37.997Z,84.50
2023-03-17T08:35:41.618Z,84.50
2023-03-17T08:38:43.674Z,84.30
2023-03-17T08:41:45.962Z,84.10
2023-03-17T08:44:47.617Z,83.90
2023-03-17T08:47:49.292Z,83.90
2023-03-17T08:50:51.295Z,83.90
2023-03-17T08:53:53.965Z,84.00
2023-03-17T08:56:55.584Z,84.10
2023-03-17T08:59:57.208Z,84.20
2023-03-17T09:02:59.162Z,84.20
2023-03-17T09:06:00.871Z,84.30
2023-03-17T09:09:02.529Z,84.30
2023-03-17T09:12:05.648Z,84.30
2023-03-17T09:15:07.854Z,84.40
2023-03-17T09:18:10.500Z,84.40
2023-03-17T09:21:12.743Z,84.30
2023-03-17T09:24:14.672Z,84.40
2023-03-17T09:27:16.317Z,84.40
2023-03-17T09:30:18.732Z,84.30
2023-03-17T09:33:20.940Z,84.30
2023-03-17T09:36:23.612Z,84.30
2023-03-17T09:39:25.342Z,84.20
2023-03-17T09:42:38.586Z,84.00
2023-03-17T09:45:43.429Z,84.00
2023-03-17T09:49:01.781Z,83.90
2023-03-17T09:52:03.833Z,83.80
2023-03-17T09:55:08.499Z,83.80
2023-03-17T09:58:10.333Z,83.70
2023-03-17T10:01:13.432Z,83.50
2023-03-17T10:04:18.279Z,83.20
2023-03-17T10:07:27.034Z,82.80
2023-03-17T10:10:43.635Z,82.50
2023-03-17T10:13:55.003Z,82.20
2023-03-17T10:17:11.855Z,82.40
2023-03-17T10:20:26.324Z,82.90
2023-03-17T10:23:29.996Z,83.20
2023-03-17T10:26:39.831Z,83.40
2023-03-17T10:29:42.123Z,83.40
2023-03-17T10:32:44.384Z,83.60
2023-03-17T10:35:46.792Z,83.50
2023-03-17T10:38:52.558Z,83.50
2023-03-17T10:42:00.333Z,83.50
2023-03-17T10:45:07.477Z,83.40
2023-03-17T10:48:09.581Z,83.30
2023-03-17T10:51:13.716Z,83.30
2023-03-17T10:54:18.946Z,83.20
2023-03-17T10:57:20.777Z,82.90
2023-03-17T11:00:23.173Z,82.90
2023-03-17T11:03:34.145Z,82.90
2023-03-17T11:06:42.226Z,83.00
2023-03-17T11:09:44.560Z,83.00
2023-03-17T11:12:52.944Z,83.10
2023-03-17T11:16:00.396Z,83.20
2023-03-17T11:19:02.479Z,83.30
2023-03-17T11:22:16.667Z,83.30
2023-03-17T11:25:23.460Z,83.40
2023-03-17T11:28:31.063Z,83.30
2023-03-17T11:31:35.110Z,83.10
2023-03-17T11:35:10.818Z,83.00
2023-03-17T11:38:22.459Z,83.00
2023-03-17T11:41:51.028Z,83.00
2023-03-17T11:45:04.621Z,83.10
2023-03-17T11:48:22.656Z,83.20
2023-03-17T11:51:43.462Z,83.00
2023-03-17T11:54:48.208Z,83.00
2023-03-17T11:57:56.876Z,83.00
2023-03-17T12:01:00.387Z,83.00
2023-03-17T12:04:05.524Z,83.20
2023-03-17T12:07:21.316Z,83.30
2023-03-17T12:10:33.496Z,83.30
2023-03-17T12:13:46.573Z,83.00
2023-03-17T12:16:50.213Z,82.90
2023-03-17T12:19:58.413Z,83.00
2023-03-17T12:23:16.569Z,83.00
2023-03-17T12:26:20.201Z,82.90
2023-03-17T12:29:25.556Z,82.70
2023-03-17T12:32:44.674Z,82.80
2023-03-17T12:35:46.395Z,82.90
2023-03-17T12:39:01.856Z,82.70
2023-03-17T12:42:18.619Z,82.80
2023-03-17T12:45:46.052Z,82.60
2023-03-17T12:48:50.691Z,82.30
2023-03-17T12:52:12.410Z,82.30
2023-03-17T12:55:15.971Z,82.20
2023-03-17T12:58:32.777Z,82.20
2023-03-17T13:01:46.430Z,82.50
2023-03-17T13:04:57.777Z,82.40
2023-03-17T13:08:01.561Z,82.10
2023-03-17T13:11:26.094Z,82.00
2023-03-17T13:14:41.038Z,82.00
2023-03-17T13:17:42.688Z,82.20
2023-03-17T13:20:59.354Z,82.40
2023-03-17T13:24:16.216Z,82.20
2023-03-17T13:27:32.831Z,82.00
2023-03-17T13:30:34.433Z,81.90
2023-03-17T13:33:41.048Z,81.80
2023-03-17T13:37:15.294Z,81.80
2023-03-17T13:40:19.988Z,81.80
2023-03-17T13:43:58.911Z,81.60
2023-03-17T13:47:27.158Z,81.40
2023-03-17T13:50:31.843Z,81.10
2023-03-17T13:53:45.773Z,81.10
2023-03-17T13:56:50.877Z,81.00
2023-03-17T14:00:15.038Z,80.70
2023-03-17T14:03:23.315Z,80.20
2023-03-17T14:06:36.186Z,79.00
2023-03-17T14:09:39.140Z,77.90
2023-03-17T14:12:52.441Z,77.40
2023-03-17T14:15:59.821Z,77.10
2023-03-17T14:19:17.827Z,77.50
2023-03-17T14:22:23.894Z,77.60
2023-03-17T14:25:27.106Z,77.20
2023-03-17T14:28:30.520Z,76.60
2023-03-17T14:31:32.283Z,76.40
2023-03-17T14:34:34.068Z,76.10
2023-03-17T14:37:37.266Z,76.50
2023-03-17T14:40:38.875Z,76.50
2023-03-17T14:43:41.428Z,76.40
2023-03-17T14:46:43.071Z,76.10
2023-03-17T14:49:44.684Z,76.00
2023-03-17T14:52:46.539Z,75.80
2023-03-17T14:55:48.213Z,75.60
2023-03-17T14:58:50.892Z,75.90
2023-03-17T15:01:57.280Z,75.80
2023-03-17T15:05:02.400Z,75.70
2023-03-17T15:08:41.132Z,74.90
2023-03-17T15:11:43.576Z,74.40
2023-03-17T15:14:45.936Z,74.50
2023-03-17T15:17:50.602Z,74.20
2023-03-17T15:20:52.284Z,73.20
2023-03-17T15:23:53.977Z,72.30
2023-03-17T15:27:06.979Z,71.20
2023-03-17T15:30:09.613Z,70.20
2023-03-17T15:33:21.150Z,69.00
2023-03-17T15:36:32.356Z,67.60
2023-03-17T15:39:34.526Z,67.30
2023-03-17T15:42:37.720Z,66.50
2023-03-17T15:45:39.360Z,66.50
2023-03-17T15:48:41.007Z,67.00
2023-03-17T15:51:42.736Z,67.90
2023-03-17T15:54:45.462Z,68.20
2023-03-17T15:57:54.806Z,67.40
2023-03-17T16:00:57.297Z,66.00
2023-03-17T16:03:59.107Z,66.40
2023-03-17T16:07:00.790Z,67.50
2023-03-17T16:10:02.455Z,66.80
2023-03-17T16:13:04.324Z,65.10
2023-03-17T16:16:06.191Z,63.70
2023-03-17T16:19:28.136Z,62.50
2023-03-17T16:22:41.776Z,61.50
2023-03-17T16:25:43.849Z,61.00
2023-03-17T16:28:46.274Z,60.90
2023-03-17T16:31:49.248Z,61.70
2023-03-17T16:34:50.886Z,62.20
2023-03-17T16:37:54.105Z,62.80
2023-03-17T16:41:00.155Z,63.20
2023-03-17T16:44:02.190Z,62.90
2023-03-17T16:47:04.073Z,63.00
2023-03-17T16:50:14.383Z,63.40
2023-03-17T16:53:16.306Z,64.00
2023-03-17T16:56:21.921Z,64.70
2023-03-17T16:59:28.230Z,65.20
2023-03-17T17:02:30.118Z,65.60
2023-03-17T17:05:32.116Z,65.30
2023-03-17T17:08:33.806Z,64.30
2023-03-17T17:11:35.777Z,63.50
2023-03-17T17:14:37.458Z,63.20
2023-03-17T17:17:40.486Z,63.50
2023-03-17T17:20:42.267Z,64.00
2023-03-17T17:23:44.522Z,64.70
2023-03-17T17:26:46.213Z,65.40
2023-03-17T17:29:48.066Z,66.00
2023-03-17T17:32:50.147Z,66.60
2023-03-17T17:35:52.481Z,67.10
2023-03-17T17:38:54.233Z,67.40
2023-03-17T17:41:56.365Z,67.80
2023-03-17T17:44:58.062Z,68.20
2023-03-17T17:47:59.730Z,68.50
2023-03-17T17:51:02.626Z,68.90
2023-03-17T17:54:04.565Z,69.10
2023-03-17T17:57:07.008Z,69.40
2023-03-17T18:00:10.407Z,69.80
2023-03-17T18:03:12.299Z,70.00
2023-03-17T18:06:14.004Z,70.30
2023-03-17T18:09:18.053Z,70.70
2023-03-17T18:12:19.732Z,71.00
2023-03-17T18:15:21.952Z,71.20
2023-03-17T18:18:23.717Z,71.50
2023-03-17T18:21:25.564Z,71.70
2023-03-17T18:24:27.285Z,72.00
2023-03-17T18:27:28.956Z,72.30
2023-03-17T18:30:31.622Z,72.60
2023-03-17T18:33:33.726Z,72.90
2023-03-17T18:36:35.652Z,73.10
2023-03-17T18:39:37.290Z,73.30
2023-03-17T18:42:39.035Z,73.50
2023-03-17T18:45:40.711Z,73.80
2023-03-17T18:48:42.397Z,74.10
2023-03-17T18:51:44.293Z,74.10
2023-03-17T18:54:46.008Z,74.40
2023-03-17T18:57:47.716Z,74.70
2023-03-17T19:00:50.180Z,74.90
2023-03-17T19:03:52.052Z,75.20
2023-03-17T19:06:53.818Z,75.30
2023-03-17T19:09:55.835Z,75.30
2023-03-17T19:12:58.781Z,75.50
2023-03-17T19:16:00.549Z,75.60
2023-03-17T19:19:02.764Z,75.90
2023-03-17T19:22:04.484Z,76.20
2023-03-17T19:25:06.649Z,76.40
2023-03-17T19:28:08.495Z,76.50
2023-03-17T19:31:10.492Z,76.70
2023-03-17T19:34:13.074Z,77.00
2023-03-17T19:37:14.889Z,77.20
2023-03-17T19:40:16.845Z,77.40
2023-03-17T19:43:36.838Z,77.60
2023-03-17T19:46:41.332Z,77.80
2023-03-17T19:49:43.298Z,78.00
2023-03-17T19:52:46.148Z,78.10
2023-03-17T19:55:47.805Z,78.30
2023-03-17T19:58:49.727Z,78.40
2023-03-17T20:01:52.382Z,78.60
2023-03-17T20:04:54.603Z,78.80
2023-03-17T20:07:56.299Z,79.00
2023-03-17T20:10:58.377Z,79.10
2023-03-17T20:14:01.463Z,79.20
2023-03-17T20:17:04.451Z,79.40
2023-03-17T20:20:07.746Z,79.50
2023-03-17T20:23:09.397Z,79.60
2023-03-17T20:26:11.100Z,79.60
2023-03-17T20:29:14.276Z,79.70
2023-03-17T20:32:17.165Z,79.90
2023-03-17T20:35:18.858Z,80.10
2023-03-17T20:38:21.176Z,80.40
2023-03-17T20:41:23.931Z,80.60
2023-03-17T20:44:25.708Z,80.70
2023-03-17T20:47:28.212Z,80.90
2023-03-17T20:50:31.055Z,80.90
2023-03-17T20:53:34.259Z,81.00
2023-03-17T20:56:37.374Z,81.00
2023-03-17T20:59:39.692Z,80.90
2023-03-17T21:02:41.919Z,80.80
2023-03-17T21:05:43.704Z,80.80
2023-03-17T21:08:46.087Z,80.90
2023-03-17T21:11:49.210Z,81.00
2023-03-17T21:14:54.361Z,81.20
2023-03-17T21:17:56.083Z,81.40
2023-03-17T21:20:58.213Z,81.50
2023-03-17T21:24:02.004Z,81.60
2023-03-17T21:27:05.572Z,81.60
2023-03-17T21:30:09.677Z,81.50
2023-03-17T21:33:11.615Z,81.50
2023-03-17T21:36:13.301Z,81.60
2023-03-17T21:39:15.064Z,81.80
2023-03-17T21:42:16.872Z,81.90
2023-03-17T21:45:18.721Z,82.00
2023-03-17T21:48:20.760Z,82.20
2023-03-17T21:51:22.888Z,82.20
